createdAt,value
2022-09-07T00:03:24.958Z,100044.38
2022-09-07T00:08:28.168Z,100036.58
2022-09-07T00:13:34.299Z,100028.89
2022-09-07T00:18:38.821Z,100027.45
2022-09-07T00:23:45.814Z,100023.43
2022-09-07T00:28:49.940Z,100014.34
2022-09-07T00:33:54.782Z,100020.52
2022-09-07T00:38:58.724Z,100015.99
2022-09-07T00:44:42.486Z,100018.65
2022-09-07T00:49:50.898Z,100012.05
2022-09-07T00:55:02.908Z,100009.36
2022-09-07T01:00:07.891Z,100008.63
2022-09-07T01:05:48.662Z,100017.65
2022-09-07T01:10:52.035Z,100018.85
2022-09-07T01:16:16.226Z,100011.31
2022-09-07T01:21:50.163Z,100008.26
2022-09-07T01:27:43.284Z,100005.62
2022-09-07T01:33:26.400Z,99998.03
2022-09-07T01:38:54.840Z,99998.89
2022-09-07T01:44:18.799Z,99997.33
2022-09-07T01:49:37.376Z,99999.27
2022-09-07T01:54:55.470Z,99996.31
2022-09-07T02:00:16.781Z,99992.56
2022-09-07T02:05:52.120Z,99991.29
2022-09-07T02:11:08.848Z,99985.80
2022-09-07T02:16:20.522Z,99980.00
2022-09-07T02:21:38.618Z,99975.09
2022-09-07T02:26:42.667Z,99966.50
2022-09-07T02:31:50.304Z,99971.30
2022-09-07T02:36:54.844Z,99965.77
2022-09-07T02:41:57.998Z,99955.55
2022-09-07T02:47:20.985Z,99959.08
2022-09-07T02:52:48.037Z,99953.77
2022-09-07T02:58:28.545Z,99938.79
2022-09-07T03:04:21.845Z,99943.35
2022-09-07T03:09:32.991Z,99937.38
2022-09-07T03:14:40.513Z,99940.20
2022-09-07T03:19:46.600Z,99941.15
2022-09-07T03:24:49.664Z,99936.13
2022-09-07T03:29:52.851Z,99936.10
2022-09-07T03:34:56.751Z,99932.19
2022-09-07T03:39:59.890Z,99932.74
2022-09-07T03:45:03.649Z,99929.71
2022-09-07T03:50:07.554Z,99931.23
2022-09-07T03:55:11.191Z,99926.40
2022-09-07T04:00:14.891Z,99932.45
2022-09-07T04:05:18.121Z,99932.17
2022-09-07T04:10:21.202Z,99930.55
2022-09-07T04:15:24.633Z,99933.20
2022-09-07T04:20:28.551Z,99933.20
2022-09-07T04:25:35.095Z,99932.21
2022-09-07T04:30:38.212Z,99940.77
2022-09-07T04:35:43.109Z,99938.16
2022-09-07T04:40:46.180Z,99939.10
2022-09-07T04:45:49.286Z,99938.54
2022-09-07T04:50:52.449Z,99941.77
2022-09-07T04:55:58.408Z,99937.58
2022-09-07T05:01:06.371Z,99934.08
2022-09-07T05:06:10.456Z,99936.82
2022-09-07T05:11:15.226Z,99935.12
2022-09-07T05:16:22.940Z,99933.37
2022-09-07T05:21:30.037Z,99931.92
2022-09-07T05:26:36.400Z,99931.16
2022-09-07T05:31:39.516Z,99918.39
2022-09-07T05:36:42.604Z,99915.38
2022-09-07T05:41:45.697Z,99924.09
2022-09-07T05:46:48.847Z,99927.84
2022-09-07T05:51:51.911Z,99922.61
2022-09-07T05:56:54.962Z,99915.28
2022-09-07T06:01:58.137Z,99907.00
2022-09-07T06:12:24.252Z,99914.42
2022-09-07T06:17:31.327Z,99918.36
2022-09-07T06:22:38.395Z,99916.81
2022-09-07T06:27:41.450Z,99914.42
2022-09-07T06:32:44.949Z,99919.58
2022-09-07T06:37:48.365Z,99925.42
2022-09-07T06:42:52.492Z,99927.01
2022-09-07T06:47:55.621Z,99924.02
2022-09-07T06:58:22.221Z,99927.77
2022-09-07T07:03:25.364Z,99927.56
2022-09-07T07:08:28.531Z,99927.74
2022-09-07T07:13:31.808Z,99918.08
2022-09-07T07:18:36.386Z,99919.12
2022-09-07T07:23:40.520Z,99930.73
2022-09-07T07:29:04.777Z,99940.29
2022-09-07T07:34:08.804Z,99940.21
2022-09-07T07:44:34.851Z,99927.89
2022-09-07T07:49:37.695Z,99929.94
2022-09-07T07:54:40.731Z,99930.23
2022-09-07T07:59:43.763Z,99935.66
2022-09-07T08:04:46.832Z,99932.08
2022-09-07T08:09:50.046Z,99928.52
2022-09-07T08:14:54.293Z,99918.34
2022-09-07T08:19:57.419Z,99916.15
2022-09-07T08:25:00.674Z,99915.80
2022-09-07T08:30:04.220Z,99919.60
2022-09-07T08:35:08.270Z,99909.61
2022-09-07T08:40:19.739Z,99901.09
2022-09-07T08:45:48.748Z,99894.52
2022-09-07T08:51:12.173Z,99894.96
2022-09-07T08:56:33.439Z,99892.91
2022-09-07T09:01:42.486Z,99886.91
2022-09-07T09:07:24.294Z,99877.04
2022-09-07T09:12:52.562Z,99874.60
2022-09-07T09:18:31.531Z,99861.91
2022-09-07T09:23:40.881Z,99859.59
2022-09-07T09:28:44.263Z,99856.48
2022-09-07T09:34:15.321Z,99856.15
2022-09-07T09:39:32.956Z,99861.71
2022-09-07T09:44:38.538Z,99855.20
2022-09-07T09:49:41.748Z,99845.84
2022-09-07T09:54:51.377Z,99834.39
2022-09-07T10:00:06.909Z,99831.85
2022-09-07T10:05:45.654Z,99828.88
2022-09-07T10:11:04.833Z,99817.64
2022-09-07T10:16:10.398Z,99812.34
2022-09-07T10:21:30.997Z,99814.02
2022-09-07T10:26:39.316Z,99813.39
2022-09-07T10:31:54.734Z,99812.91
2022-09-07T10:37:10.685Z,99814.96
2022-09-07T10:42:29.310Z,99813.05
2022-09-07T10:47:48.756Z,99811.29
2022-09-07T10:53:13.405Z,99810.77
2022-09-07T10:59:02.777Z,99803.59
2022-09-07T11:04:53.133Z,99799.78
2022-09-07T11:10:15.332Z,99795.13
2022-09-07T11:15:50.761Z,99790.50
2022-09-07T11:20:59.138Z,99780.46
2022-09-07T11:26:54.131Z,99787.30
2022-09-07T11:32:05.045Z,99783.45
2022-09-07T11:37:27.129Z,99781.59
2022-09-07T11:43:37.303Z,99774.23
2022-09-07T11:49:06.384Z,99770.30
2022-09-07T11:54:32.335Z,99767.63
2022-09-07T11:59:53.867Z,99770.13
2022-09-07T12:05:07.516Z,99764.13
2022-09-07T12:10:37.978Z,99757.33
2022-09-07T12:16:10.229Z,99747.41
2022-09-07T12:21:53.201Z,99739.24
2022-09-07T12:26:59.388Z,99742.11
2022-09-07T12:32:53.103Z,99738.52
2022-09-07T12:37:27.515Z,99731.83
2022-09-07T12:42:32.248Z,99718.70
2022-09-07T12:47:35.701Z,99714.26
2022-09-07T12:52:57.710Z,99716.95
2022-09-07T12:58:19.588Z,99716.71
2022-09-07T13:04:07.755Z,99706.62
2022-09-07T13:09:37.739Z,99697.36
2022-09-07T13:14:42.858Z,99692.91
2022-09-07T13:19:55.181Z,99693.32
2022-09-07T13:25:03.801Z,99697.67
2022-09-07T13:30:16.512Z,99686.39
2022-09-07T13:35:24.074Z,99682.52
2022-09-07T13:40:45.818Z,99688.48
2022-09-07T13:45:54.848Z,99684.34
2022-09-07T13:51:10.812Z,99680.28
2022-09-07T13:56:38.509Z,99681.94
2022-09-07T14:01:47.747Z,99677.23
2022-09-07T14:06:51.053Z,99674.15
2022-09-07T14:11:55.164Z,99673.95
2022-09-07T14:17:08.623Z,99675.27
2022-09-07T14:22:26.684Z,99666.86
2022-09-07T14:27:39.457Z,99662.44
2022-09-07T14:32:43.946Z,99660.88
2022-09-07T14:37:49.255Z,99653.44
2022-09-07T14:42:55.578Z,99649.81
2022-09-07T14:47:59.517Z,99643.33
2022-09-07T14:58:34.942Z,99635.80
2022-09-07T15:03:43.709Z,99629.71
2022-09-07T15:08:49.383Z,99628.48
2022-09-07T15:14:09.642Z,99627.22
2022-09-07T15:19:15.506Z,99623.36
2022-09-07T15:24:18.843Z,99628.92
2022-09-07T15:29:22.326Z,99630.14
2022-09-07T15:34:26.442Z,99629.86
2022-09-07T15:39:34.694Z,99629.41
2022-09-07T15:44:38.127Z,99618.49
2022-09-07T15:49:49.997Z,99620.45
2022-09-07T15:54:54.018Z,99617.14
2022-09-07T15:59:58.312Z,99613.66
2022-09-07T16:05:01.419Z,99614.55
2022-09-07T16:10:08.795Z,99620.53
2022-09-07T16:15:12.732Z,99616.42
2022-09-07T16:20:16.730Z,99613.26
2022-09-07T16:25:20.475Z,99609.17
2022-09-07T16:30:23.543Z,99608.30
2022-09-07T16:35:26.691Z,99601.70
2022-09-07T16:40:29.907Z,99597.27
2022-09-07T16:51:01.710Z,99590.08
2022-09-07T16:56:18.879Z,99594.39
2022-09-07T17:01:26.429Z,99594.02
2022-09-07T17:06:31.327Z,99599.07
2022-09-07T17:11:36.550Z,99595.35
2022-09-07T17:16:41.744Z,99593.39
2022-09-07T17:21:46.328Z,99593.81
2022-09-07T17:26:49.643Z,99602.23
2022-09-07T17:37:16.011Z,99604.11
2022-09-07T17:42:19.173Z,99610.05
2022-09-07T17:47:22.184Z,99618.60
2022-09-07T17:52:25.880Z,99625.50
2022-09-07T17:57:29.169Z,99629.77
2022-09-07T18:02:33.048Z,99631.08
2022-09-07T18:07:36.081Z,99630.21
2022-09-07T18:12:39.242Z,99628.50
2022-09-07T18:17:42.395Z,99635.38
2022-09-07T18:22:46.191Z,99640.19
2022-09-07T18:29:03.370Z,99640.05
2022-09-07T18:33:12.326Z,99634.09
2022-09-07T18:38:15.405Z,99634.13
2022-09-07T18:43:18.419Z,99633.59
2022-09-07T18:48:21.441Z,99629.48
2022-09-07T18:53:24.896Z,99628.30
2022-09-07T18:58:27.741Z,99625.30
2022-09-07T19:03:31.773Z,99627.55
2022-09-07T19:08:38.207Z,99627.85
2022-09-07T19:13:41.463Z,99626.15
2022-09-07T19:18:57.445Z,99629.30
2022-09-07T19:24:04.336Z,99636.49
2022-09-07T19:29:15.549Z,99641.15
2022-09-07T19:34:18.765Z,99642.90
2022-09-07T19:39:21.810Z,99634.06
2022-09-07T19:44:25.006Z,99631.70
2022-09-07T19:49:28.769Z,99631.45
2022-09-07T19:54:31.896Z,99634.41
2022-09-07T19:59:34.953Z,99632.16
2022-09-07T20:04:38.278Z,99634.17
2022-09-07T20:09:41.781Z,99631.17
2022-09-07T20:14:45.537Z,99633.44
2022-09-07T20:19:48.658Z,99635.84
2022-09-07T20:24:51.706Z,99635.66
2022-09-07T20:29:54.847Z,99636.63
2022-09-07T20:34:58.443Z,99631.92
2022-09-07T20:40:01.803Z,99627.02
2022-09-07T20:45:05.128Z,99633.91
2022-09-07T20:50:08.570Z,99634.00
2022-09-07T20:55:11.715Z,99632.61
2022-09-07T21:00:15.060Z,99637.98
2022-09-07T21:05:18.137Z,99639.70
2022-09-07T21:10:21.573Z,99640.42
2022-09-07T21:15:29.385Z,99642.13
2022-09-07T21:20:32.727Z,99648.68
2022-09-07T21:25:43.093Z,99651.09
2022-09-07T21:30:59.131Z,99653.88
2022-09-07T21:36:12.376Z,99652.20
2022-09-07T21:41:17.274Z,99648.55
2022-09-07T21:46:20.365Z,99639.33
2022-09-07T21:51:24.919Z,99634.59
2022-09-07T21:56:30.191Z,99641.83
2022-09-07T22:01:33.487Z,99639.14
2022-09-07T22:06:37.923Z,99636.89
2022-09-07T22:11:44.180Z,99637.98
2022-09-07T22:16:49.095Z,99630.39
2022-09-07T22:21:53.541Z,99627.02
2022-09-07T22:26:57.220Z,99619.98
2022-09-07T22:32:00.223Z,99622.09
2022-09-07T22:37:03.230Z,99623.66
2022-09-07T22:42:06.340Z,99618.35
2022-09-07T22:47:10.795Z,99613.11
2022-09-07T22:52:13.851Z,99603.65
2022-09-07T22:57:16.885Z,99600.11
2022-09-07T23:02:19.895Z,99604.77
2022-09-07T23:07:22.923Z,99596.96
2022-09-07T23:12:25.944Z,99588.03
2022-09-07T23:17:28.942Z,99582.56
2022-09-07T23:22:32.139Z,99586.34
2022-09-07T23:27:35.528Z,99581.96
2022-09-07T23:32:38.561Z,99577.98
2022-09-07T23:37:41.566Z,99577.74
2022-09-07T23:42:44.637Z,99586.92
2022-09-07T23:47:47.712Z,99591.61
2022-09-07T23:52:50.748Z,99593.36
2022-09-07T23:57:53.752Z,99589.70
